createdAt,value
2016-11-02T00:00:31.515Z,0
2016-11-02T00:05:36.280Z,0
2016-11-02T00:10:40.708Z,0
2016-11-02T00:15:45.131Z,0
2016-11-02T00:20:49.231Z,0
2016-11-02T00:25:53.664Z,0
2016-11-02T00:30:57.759Z,0
2016-11-02T00:36:02.187Z,0
2016-11-02T00:41:06.289Z,0
2016-11-02T00:46:10.381Z,0
2016-11-02T00:51:14.475Z,0
2016-11-02T00:56:18.572Z,0
2016-11-02T01:01:22.672Z,0
2016-11-02T01:06:26.759Z,0
2016-11-02T01:11:30.856Z,0
2016-11-02T01:16:34.947Z,0
2016-11-02T01:21:39.041Z,0
2016-11-02T01:26:43.141Z,0
2016-11-02T01:31:47.576Z,0
2016-11-02T01:36:52.006Z,0
2016-11-02T01:41:56.108Z,0
2016-11-02T01:47:00.219Z,0
2016-11-02T01:52:04.309Z,0
2016-11-02T01:57:08.400Z,0
2016-11-02T02:02:13.159Z,0
2016-11-02T02:07:17.582Z,0
2016-11-02T02:12:21.681Z,0
2016-11-02T02:17:25.777Z,0
2016-11-02T02:22:29.868Z,0
2016-11-02T02:27:33.967Z,0
2016-11-02T02:32:38.396Z,0
2016-11-02T02:37:42.484Z,0
2016-11-02T02:42:46.926Z,0
2016-11-02T02:47:51.024Z,0
2016-11-02T02:52:55.446Z,0
2016-11-02T02:57:59.532Z,0
2016-11-02T03:03:03.626Z,0
2016-11-02T03:08:08.055Z,0
2016-11-02T03:13:12.148Z,0
2016-11-02T03:18:16.241Z,0
2016-11-02T03:23:20.336Z,0
2016-11-02T03:28:24.761Z,0
2016-11-02T03:33:28.858Z,0
2016-11-02T03:38:33.282Z,0
2016-11-02T03:43:37.714Z,0
2016-11-02T03:48:42.813Z,0
2016-11-02T03:53:46.908Z,0
2016-11-02T03:58:51.336Z,0
2016-11-02T04:03:55.428Z,0
2016-11-02T04:08:59.530Z,0
2016-11-02T04:14:03.956Z,0
2016-11-02T04:19:08.390Z,0
2016-11-02T04:24:12.484Z,0
2016-11-02T04:29:16.578Z,0
2016-11-02T04:34:21.003Z,0
2016-11-02T04:39:25.767Z,0
2016-11-02T04:44:29.862Z,0
2016-11-02T04:49:34.290Z,0
2016-11-02T04:54:38.385Z,0
2016-11-02T04:59:42.822Z,0
2016-11-02T05:04:47.254Z,0
2016-11-02T05:09:51.684Z,0
2016-11-02T05:14:56.134Z,0
2016-11-02T05:20:00.446Z,0
2016-11-02T05:25:04.549Z,0
2016-11-02T05:30:08.648Z,0
2016-11-02T05:35:12.753Z,0
2016-11-02T05:40:17.179Z,0
2016-11-02T05:45:21.289Z,0
2016-11-02T05:50:25.379Z,0
2016-11-02T05:55:29.806Z,0
2016-11-02T06:00:34.256Z,0
2016-11-02T06:05:38.388Z,0
2016-11-02T06:10:42.487Z,0
2016-11-02T06:15:46.935Z,0
2016-11-02T06:20:51.697Z,0
2016-11-02T06:25:56.126Z,0
2016-11-02T06:31:00.563Z,0
2016-11-02T06:36:04.657Z,0
2016-11-02T06:41:09.081Z,0
2016-11-02T06:46:13.513Z,0
2016-11-02T06:51:17.947Z,1
2016-11-02T06:56:22.044Z,1
2016-11-02T07:01:26.166Z,1
2016-11-02T07:06:30.564Z,1
2016-11-02T07:11:35.000Z,1
2016-11-02T07:16:39.429Z,2
2016-11-02T07:21:43.863Z,4
2016-11-02T07:26:47.964Z,2
2016-11-02T07:31:52.056Z,3
2016-11-02T07:36:56.156Z,2
2016-11-02T07:42:00.588Z,2
2016-11-02T07:47:04.690Z,7
2016-11-02T07:52:08.780Z,4
2016-11-02T07:57:13.204Z,2
2016-11-02T08:02:17.301Z,1
2016-11-02T08:07:21.726Z,1
2016-11-02T08:12:25.836Z,2
2016-11-02T08:17:30.265Z,4
2016-11-02T08:22:35.034Z,2
2016-11-02T08:27:39.461Z,4
2016-11-02T08:32:43.568Z,10
2016-11-02T08:37:48.005Z,9
2016-11-02T08:42:53.115Z,4
2016-11-02T08:47:57.872Z,2
2016-11-02T08:53:01.961Z,1
2016-11-02T08:58:06.062Z,3
2016-11-02T09:03:10.495Z,3
2016-11-02T09:08:14.588Z,2
2016-11-02T09:13:19.349Z,4
2016-11-02T09:18:23.450Z,14
2016-11-02T09:23:27.879Z,16
2016-11-02T09:28:31.979Z,10
2016-11-02T09:33:36.417Z,7
2016-11-02T09:38:40.847Z,13
2016-11-02T09:43:44.943Z,19
2016-11-02T09:48:49.042Z,3
2016-11-02T09:53:53.138Z,2
2016-11-02T09:58:57.229Z,1
2016-11-02T10:04:01.469Z,1
2016-11-02T10:09:05.428Z,3
2016-11-02T10:14:09.523Z,4
2016-11-02T10:19:13.955Z,10
2016-11-02T10:24:18.054Z,17
2016-11-02T10:29:22.153Z,8
2016-11-02T10:34:26.246Z,4
2016-11-02T10:39:30.338Z,4
2016-11-02T10:44:34.765Z,10
2016-11-02T10:49:40.200Z,10
2016-11-02T10:54:44.632Z,4
2016-11-02T10:59:48.727Z,3
2016-11-02T11:04:53.296Z,6
2016-11-02T11:09:57.724Z,8
2016-11-02T11:15:01.816Z,7
2016-11-02T11:20:05.923Z,9
2016-11-02T11:25:10.358Z,10
2016-11-02T11:30:14.787Z,13
2016-11-02T11:35:19.220Z,13
2016-11-02T11:40:23.648Z,8
2016-11-02T11:45:28.752Z,12
2016-11-02T11:50:32.851Z,13
2016-11-02T11:55:37.287Z,16
2016-11-02T12:00:41.729Z,14
2016-11-02T12:05:46.664Z,8
2016-11-02T12:10:50.738Z,5
2016-11-02T12:15:54.841Z,15
2016-11-02T12:20:58.934Z,8
2016-11-02T12:26:03.036Z,1
2016-11-02T12:31:07.473Z,1
2016-11-02T12:36:11.907Z,0
2016-11-02T12:41:16.006Z,2
2016-11-02T12:46:20.443Z,3
2016-11-02T12:51:24.874Z,3
2016-11-02T12:56:28.965Z,3
2016-11-02T13:01:33.094Z,4
2016-11-02T13:06:37.858Z,6
2016-11-02T13:11:41.956Z,10
2016-11-02T13:16:46.066Z,7
2016-11-02T13:21:50.856Z,10
2016-11-02T13:26:55.320Z,9
2016-11-02T13:31:59.751Z,8
2016-11-02T13:37:04.851Z,9
2016-11-02T13:42:09.313Z,4
2016-11-02T13:47:13.489Z,8
2016-11-02T13:52:17.767Z,5
2016-11-02T13:57:22.172Z,7
2016-11-02T14:02:26.946Z,3
2016-11-02T14:07:31.735Z,3
2016-11-02T14:12:36.164Z,4
2016-11-02T14:17:40.595Z,3
2016-11-02T14:22:45.070Z,2
2016-11-02T14:27:49.501Z,2
2016-11-02T14:32:54.018Z,1
2016-11-02T14:37:58.174Z,2
2016-11-02T14:43:02.271Z,2
2016-11-02T14:48:06.363Z,2
2016-11-02T14:53:10.469Z,1
2016-11-02T14:58:14.571Z,1
2016-11-02T15:03:18.668Z,1
2016-11-02T15:08:22.782Z,1
2016-11-02T15:13:27.257Z,1
2016-11-02T15:18:31.479Z,1
2016-11-02T15:23:35.583Z,0
2016-11-02T15:28:40.353Z,0
2016-11-02T15:33:45.123Z,0
2016-11-02T15:38:49.552Z,0
2016-11-02T15:43:53.922Z,0
2016-11-02T15:48:58.015Z,0
2016-11-02T15:54:02.133Z,0
2016-11-02T15:59:06.564Z,0
2016-11-02T16:04:10.657Z,0
2016-11-02T16:09:15.419Z,0
2016-11-02T16:14:19.870Z,0
2016-11-02T16:19:24.001Z,0
2016-11-02T16:24:28.093Z,0
2016-11-02T16:29:32.185Z,0
2016-11-02T16:34:36.478Z,0
2016-11-02T16:39:40.577Z,0
2016-11-02T16:44:44.696Z,0
2016-11-02T16:49:49.125Z,0
2016-11-02T16:54:53.225Z,0
2016-11-02T16:59:57.662Z,0
2016-11-02T17:05:02.148Z,0
2016-11-02T17:10:06.240Z,0
2016-11-02T17:15:10.353Z,0
2016-11-02T17:20:14.466Z,0
2016-11-02T17:25:18.791Z,0
2016-11-02T17:30:22.887Z,0
2016-11-02T17:35:27.319Z,0
2016-11-02T17:40:31.417Z,0
2016-11-02T17:45:35.519Z,0
2016-11-02T17:50:40.411Z,0
2016-11-02T17:55:44.933Z,0
2016-11-02T18:00:49.018Z,0
2016-11-02T18:05:53.111Z,0
2016-11-02T18:10:57.543Z,0
2016-11-02T18:16:02.636Z,0
2016-11-02T18:21:07.069Z,0
2016-11-02T18:26:11.496Z,0
2016-11-02T18:31:15.921Z,0
2016-11-02T18:36:20.016Z,0
2016-11-02T18:41:24.102Z,0
2016-11-02T18:46:28.528Z,0
2016-11-02T18:51:32.623Z,0
2016-11-02T18:56:37.048Z,0
2016-11-02T19:01:41.147Z,0
2016-11-02T19:06:45.241Z,0
2016-11-02T19:11:49.672Z,0
2016-11-02T19:16:53.778Z,0
2016-11-02T19:21:58.219Z,0
2016-11-02T19:27:02.650Z,0
2016-11-02T19:32:07.076Z,0
2016-11-02T19:37:11.845Z,0
2016-11-02T19:42:15.943Z,0
2016-11-02T19:47:20.038Z,0
2016-11-02T19:52:24.132Z,0
2016-11-02T19:57:29.246Z,0
2016-11-02T20:02:33.337Z,0
2016-11-02T20:07:37.428Z,0
2016-11-02T20:12:41.759Z,0
2016-11-02T20:17:45.884Z,0
2016-11-02T20:22:50.317Z,0
2016-11-02T20:27:54.421Z,0
2016-11-02T20:32:58.850Z,0
2016-11-02T20:38:02.941Z,0
2016-11-02T20:43:07.372Z,0
2016-11-02T20:48:11.796Z,0
2016-11-02T20:53:16.889Z,0
2016-11-02T20:58:21.332Z,0
2016-11-02T21:03:25.401Z,0
2016-11-02T21:08:29.496Z,0
2016-11-02T21:13:33.586Z,0
2016-11-02T21:18:38.276Z,0
2016-11-02T21:23:42.514Z,0
2016-11-02T21:28:46.944Z,0
2016-11-02T21:33:51.057Z,0
2016-11-02T21:38:55.512Z,0
2016-11-02T21:43:59.597Z,0
2016-11-02T21:49:04.029Z,0
2016-11-02T21:54:09.129Z,0
2016-11-02T21:59:13.559Z,0
2016-11-02T22:04:18.149Z,0
2016-11-02T22:09:22.572Z,0
2016-11-02T22:14:27.017Z,0
2016-11-02T22:19:31.453Z,0
2016-11-02T22:24:35.880Z,0
2016-11-02T22:29:40.313Z,0
2016-11-02T22:34:44.735Z,0
2016-11-02T22:39:49.836Z,0
2016-11-02T22:44:54.277Z,0
2016-11-02T22:49:58.703Z,0
2016-11-02T22:55:03.131Z,0
2016-11-02T23:00:07.232Z,0
2016-11-02T23:05:11.669Z,0
2016-11-02T23:10:16.093Z,0
2016-11-02T23:15:20.185Z,0
2016-11-02T23:20:24.278Z,0
2016-11-02T23:25:29.045Z,0
2016-11-02T23:30:33.471Z,0
2016-11-02T23:35:37.901Z,0
2016-11-02T23:40:41.994Z,0
2016-11-02T23:45:46.416Z,0
2016-11-02T23:50:50.516Z,0
2016-11-02T23:55:54.598Z,0
